createdAt,value
2023-02-06T00:01:37.886Z,0.10
2023-02-06T00:04:06.237Z,0.10
2023-02-06T00:06:34.377Z,0.10
2023-02-06T00:09:03.153Z,0.00
2023-02-06T00:11:31.430Z,0.00
2023-02-06T00:14:00.090Z,0.00
2023-02-06T00:16:31.778Z,0.00
2023-02-06T00:19:00.641Z,0.00
2023-02-06T00:21:29.829Z,0.00
2023-02-06T00:24:00.132Z,0.00
2023-02-06T00:26:28.357Z,0.00
2023-02-06T00:28:56.517Z,-0.10
2023-02-06T00:31:25.971Z,0.00
2023-02-06T00:33:55.544Z,0.00
2023-02-06T00:36:23.685Z,0.00
2023-02-06T00:38:53.184Z,0.10
2023-02-06T00:41:21.434Z,0.10
2023-02-06T00:43:50.428Z,0.10
2023-02-06T00:46:18.537Z,0.20
2023-02-06T00:48:46.670Z,0.20
2023-02-06T00:51:16.199Z,0.20
2023-02-06T00:53:44.326Z,0.20
2023-02-06T00:56:12.453Z,0.10
2023-02-06T00:58:40.577Z,0.10
2023-02-06T01:01:08.992Z,0.10
2023-02-06T01:03:37.190Z,0.10
2023-02-06T01:06:05.466Z,0.20
2023-02-06T01:08:34.967Z,0.20
2023-02-06T01:11:03.092Z,0.20
2023-02-06T01:13:31.190Z,0.10
2023-02-06T01:15:59.264Z,0.00
2023-02-06T01:18:27.502Z,0.00
2023-02-06T01:20:55.625Z,0.00
2023-02-06T01:23:25.965Z,0.10
2023-02-06T01:25:55.641Z,0.10
2023-02-06T01:28:23.691Z,0.10
2023-02-06T01:30:51.911Z,0.10
2023-02-06T01:33:20.032Z,0.10
2023-02-06T01:35:56.293Z,0.10
2023-02-06T01:38:24.509Z,0.10
2023-02-06T01:40:59.384Z,0.10
2023-02-06T01:43:31.861Z,0.10
2023-02-06T01:46:00.553Z,0.00
2023-02-06T01:48:34.260Z,0.00
2023-02-06T01:51:04.710Z,-0.10
2023-02-06T01:53:33.927Z,-0.10
2023-02-06T01:56:06.873Z,-0.20
2023-02-06T01:58:39.550Z,-0.20
2023-02-06T02:01:08.561Z,-0.30
2023-02-06T02:03:39.074Z,-0.30
2023-02-06T02:06:10.886Z,-0.20
2023-02-06T02:08:41.053Z,-0.20
2023-02-06T02:11:12.806Z,-0.20
2023-02-06T02:13:41.181Z,-0.30
2023-02-06T02:16:16.082Z,-0.30
2023-02-06T02:19:16.474Z,-0.30
2023-02-06T02:22:20.209Z,-0.30
2023-02-06T02:25:04.796Z,-0.40
2023-02-06T02:27:50.013Z,-0.40
2023-02-06T02:30:45.591Z,-0.40
2023-02-06T02:33:42.321Z,-0.30
2023-02-06T02:36:17.260Z,-0.30
2023-02-06T02:38:58.341Z,-0.30
2023-02-06T02:41:30.212Z,-0.20
2023-02-06T02:44:06.406Z,-0.20
2023-02-06T02:46:38.847Z,-0.20
2023-02-06T02:49:10.356Z,-0.20
2023-02-06T02:51:41.568Z,-0.20
2023-02-06T02:54:10.389Z,-0.10
2023-02-06T02:56:38.947Z,0.00
2023-02-06T02:59:12.501Z,0.00
2023-02-06T03:01:47.042Z,0.10
2023-02-06T03:04:19.000Z,0.30
2023-02-06T03:07:10.032Z,0.40
2023-02-06T03:09:52.085Z,0.50
2023-02-06T03:12:25.733Z,0.60
2023-02-06T03:14:58.537Z,0.60
2023-02-06T03:17:32.416Z,0.60
2023-02-06T03:20:03.540Z,0.70
2023-02-06T03:22:35.906Z,0.80
2023-02-06T03:25:06.483Z,0.90
2023-02-06T03:27:37.102Z,1.00
2023-02-06T03:30:07.035Z,1.00
2023-02-06T03:32:38.243Z,1.10
2023-02-06T03:35:11.136Z,1.10
2023-02-06T03:37:41.103Z,1.10
2023-02-06T03:40:10.583Z,1.20
2023-02-06T03:42:42.621Z,1.30
2023-02-06T03:45:16.877Z,1.30
2023-02-06T03:47:47.569Z,1.30
2023-02-06T03:50:17.070Z,1.40
2023-02-06T03:52:50.214Z,1.40
2023-02-06T03:55:21.180Z,1.50
2023-02-06T03:57:52.669Z,1.50
2023-02-06T04:00:21.503Z,1.50
2023-02-06T04:02:52.347Z,1.60
2023-02-06T04:05:20.783Z,1.70
2023-02-06T04:07:50.631Z,1.70
2023-02-06T04:10:19.079Z,1.70
2023-02-06T04:12:47.570Z,1.70
2023-02-06T04:15:15.929Z,1.80
2023-02-06T04:17:58.745Z,1.90
2023-02-06T04:20:27.262Z,1.90
2023-02-06T04:22:56.874Z,1.90
2023-02-06T04:25:25.222Z,1.90
2023-02-06T04:27:53.500Z,1.90
2023-02-06T04:30:21.953Z,1.90
2023-02-06T04:32:50.087Z,1.90
2023-02-06T04:35:18.313Z,1.90
2023-02-06T04:37:46.355Z,1.90
2023-02-06T04:40:15.892Z,1.90
2023-02-06T04:42:43.990Z,1.80
2023-02-06T04:45:12.138Z,1.80
2023-02-06T04:47:40.499Z,1.80
2023-02-06T04:50:10.430Z,1.80
2023-02-06T04:52:38.597Z,1.80
2023-02-06T04:55:07.285Z,1.80
2023-02-06T04:57:36.758Z,1.90
2023-02-06T05:00:06.417Z,1.80
2023-02-06T05:02:37.510Z,1.80
2023-02-06T05:05:09.509Z,1.80
2023-02-06T05:07:38.397Z,1.80
2023-02-06T05:10:08.924Z,1.80
2023-02-06T05:12:38.666Z,1.80
2023-02-06T05:15:07.737Z,1.90
2023-02-06T05:17:35.871Z,1.90
2023-02-06T05:20:04.627Z,1.90
2023-02-06T05:22:32.921Z,1.90
2023-02-06T05:25:01.081Z,1.90
2023-02-06T05:27:29.186Z,1.90
2023-02-06T05:29:58.650Z,1.90
2023-02-06T05:32:26.728Z,1.90
2023-02-06T05:34:54.909Z,1.90
2023-02-06T05:37:23.082Z,1.90
2023-02-06T05:39:51.222Z,1.90
2023-02-06T05:42:19.468Z,2.00
2023-02-06T05:44:47.644Z,2.00
2023-02-06T05:47:17.300Z,2.00
2023-02-06T05:49:45.397Z,2.00
2023-02-06T05:52:13.573Z,2.00
2023-02-06T05:54:41.948Z,2.00
2023-02-06T05:57:10.133Z,2.00
2023-02-06T05:59:38.369Z,2.00
2023-02-06T06:02:06.737Z,1.90
2023-02-06T06:04:36.256Z,1.80
2023-02-06T06:07:04.415Z,1.80
2023-02-06T06:09:32.539Z,1.90
2023-02-06T06:12:00.598Z,1.90
2023-02-06T06:14:28.925Z,1.90
2023-02-06T06:16:57.068Z,1.90
2023-02-06T06:19:25.204Z,1.90
2023-02-06T06:21:57.159Z,1.90
2023-02-06T06:24:26.369Z,1.90
2023-02-06T06:26:54.524Z,1.90
2023-02-06T06:29:22.923Z,1.90
2023-02-06T06:31:51.120Z,1.90
2023-02-06T06:34:19.388Z,1.90
2023-02-06T06:36:47.447Z,2.00
2023-02-06T06:39:16.879Z,2.00
2023-02-06T06:41:44.995Z,2.00
2023-02-06T06:44:13.071Z,2.00
2023-02-06T06:46:41.126Z,2.00
2023-02-06T06:49:09.304Z,2.00
2023-02-06T06:51:37.574Z,2.00
2023-02-06T06:54:06.056Z,2.00
2023-02-06T06:56:35.542Z,2.10
2023-02-06T06:59:03.668Z,2.10
2023-02-06T07:01:31.730Z,2.10
2023-02-06T07:04:00.378Z,2.10
2023-02-06T07:06:29.129Z,2.10
2023-02-06T07:08:57.268Z,2.20
2023-02-06T07:11:26.123Z,2.10
2023-02-06T07:13:55.632Z,2.10
2023-02-06T07:16:24.606Z,2.10
2023-02-06T07:18:53.018Z,2.10
2023-02-06T07:21:21.479Z,2.20
2023-02-06T07:23:49.604Z,2.20
2023-02-06T07:26:17.679Z,2.30
2023-02-06T07:28:46.109Z,2.30
2023-02-06T07:31:15.648Z,2.30
2023-02-06T07:33:43.768Z,2.30
2023-02-06T07:36:12.376Z,2.30
2023-02-06T07:38:40.843Z,2.30
2023-02-06T07:41:11.165Z,2.30
2023-02-06T07:43:40.824Z,2.20
2023-02-06T07:46:08.913Z,2.20
2023-02-06T07:48:42.486Z,2.20
2023-02-06T07:51:11.167Z,2.20
2023-02-06T07:53:39.658Z,1.90
2023-02-06T07:56:13.129Z,1.70
2023-02-06T07:58:41.533Z,1.50
2023-02-06T08:01:10.689Z,1.50
2023-02-06T08:03:40.277Z,1.60
2023-02-06T08:06:12.267Z,1.80
2023-02-06T08:08:40.382Z,2.00
2023-02-06T08:11:09.598Z,2.10
2023-02-06T08:13:37.906Z,2.20
2023-02-06T08:16:07.444Z,2.30
2023-02-06T08:18:36.182Z,2.30
2023-02-06T08:21:07.691Z,2.40
2023-02-06T08:23:35.784Z,2.30
2023-02-06T08:26:04.917Z,2.40
2023-02-06T08:28:35.245Z,2.50
2023-02-06T08:31:09.915Z,2.60
2023-02-06T08:33:38.211Z,2.70
2023-02-06T08:36:09.228Z,2.80
2023-02-06T08:38:38.216Z,2.80
2023-02-06T08:41:06.844Z,2.80
2023-02-06T08:43:34.982Z,2.80
2023-02-06T08:46:03.202Z,2.80
2023-02-06T08:48:31.314Z,2.80
2023-02-06T08:51:08.148Z,2.90
2023-02-06T08:53:36.771Z,2.90
2023-02-06T08:56:07.717Z,2.90
2023-02-06T08:58:36.661Z,2.90
2023-02-06T09:01:08.356Z,3.00
2023-02-06T09:03:36.935Z,3.00
2023-02-06T09:06:10.307Z,2.90
2023-02-06T09:08:39.564Z,3.00
2023-02-06T09:11:08.133Z,2.90
2023-02-06T09:13:36.743Z,2.90
2023-02-06T09:16:05.807Z,2.90
2023-02-06T09:18:34.394Z,2.80
2023-02-06T09:21:12.445Z,2.90
2023-02-06T09:23:42.312Z,2.80
2023-02-06T09:26:10.976Z,2.90
2023-02-06T09:28:39.258Z,3.00
2023-02-06T09:31:08.496Z,2.90
2023-02-06T09:33:39.751Z,2.90
2023-02-06T09:36:11.965Z,2.90
2023-02-06T09:38:42.726Z,3.00
2023-02-06T09:41:18.965Z,2.90
2023-02-06T09:43:51.730Z,2.70
2023-02-06T09:46:23.483Z,2.60
2023-02-06T09:48:52.306Z,2.50
2023-02-06T09:51:32.294Z,2.30
2023-02-06T09:54:09.845Z,2.30
2023-02-06T09:56:47.143Z,2.30
2023-02-06T09:59:26.225Z,2.30
2023-02-06T10:02:06.563Z,2.30
2023-02-06T10:04:44.559Z,2.30
2023-02-06T10:07:33.698Z,2.20
2023-02-06T10:10:05.444Z,2.20
2023-02-06T10:12:39.958Z,2.10
2023-02-06T10:15:14.621Z,2.10
2023-02-06T10:17:49.869Z,2.00
2023-02-06T10:20:22.149Z,2.00
2023-02-06T10:23:00.123Z,2.00
2023-02-06T10:25:33.213Z,1.90
2023-02-06T10:28:09.421Z,2.00
2023-02-06T10:30:50.311Z,2.10
2023-02-06T10:33:29.988Z,2.20
2023-02-06T10:36:04.837Z,2.30
2023-02-06T10:39:06.000Z,2.40
2023-02-06T10:41:42.244Z,2.50
2023-02-06T10:44:20.295Z,2.40
2023-02-06T10:46:51.013Z,2.40
2023-02-06T10:49:27.766Z,2.50
2023-02-06T10:51:59.076Z,2.60
2023-02-06T10:54:34.796Z,2.70
2023-02-06T10:57:04.244Z,2.60
2023-02-06T10:59:35.557Z,2.60
2023-02-06T11:02:19.587Z,2.70
2023-02-06T11:04:52.925Z,2.90
2023-02-06T11:07:27.057Z,2.80
2023-02-06T11:09:56.947Z,2.80
2023-02-06T11:12:31.211Z,2.80
2023-02-06T11:15:04.892Z,2.80
2023-02-06T11:17:33.496Z,2.80
2023-02-06T11:20:16.221Z,2.70
2023-02-06T11:22:52.666Z,2.60
2023-02-06T11:25:28.415Z,2.50
2023-02-06T11:27:57.268Z,2.30
2023-02-06T11:30:31.958Z,2.30
2023-02-06T11:33:04.864Z,2.30
2023-02-06T11:35:38.300Z,2.40
2023-02-06T11:38:14.351Z,2.50
2023-02-06T11:40:44.785Z,2.60
2023-02-06T11:43:21.355Z,2.60
2023-02-06T11:45:52.271Z,2.70
2023-02-06T11:48:39.347Z,2.70
2023-02-06T11:51:08.447Z,2.70
2023-02-06T11:53:37.866Z,2.70
2023-02-06T11:56:18.202Z,2.80
2023-02-06T11:58:46.923Z,2.70
2023-02-06T12:01:20.863Z,2.60
2023-02-06T12:03:57.344Z,2.50
2023-02-06T12:06:31.155Z,2.50
2023-02-06T12:09:01.089Z,2.50
2023-02-06T12:11:37.796Z,2.50
2023-02-06T12:14:12.361Z,2.40
2023-02-06T12:16:45.505Z,2.30
2023-02-06T12:19:18.297Z,2.40
2023-02-06T12:21:49.884Z,2.60
2023-02-06T12:24:30.121Z,2.60
2023-02-06T12:27:05.162Z,2.50
2023-02-06T12:29:37.366Z,2.50
2023-02-06T12:32:14.944Z,2.50
2023-02-06T12:34:53.694Z,2.50
2023-02-06T12:37:31.417Z,2.40
2023-02-06T12:40:00.957Z,2.40
2023-02-06T12:42:44.295Z,2.30
2023-02-06T12:45:21.540Z,2.30
2023-02-06T12:47:55.171Z,2.10
2023-02-06T12:50:28.127Z,2.10
2023-02-06T12:52:59.927Z,2.00
2023-02-06T12:55:31.000Z,2.10
2023-02-06T12:58:00.690Z,2.30
2023-02-06T13:00:51.497Z,2.20
2023-02-06T13:03:27.157Z,2.10
2023-02-06T13:06:02.503Z,2.20
2023-02-06T13:08:42.149Z,2.20
2023-02-06T13:11:15.772Z,2.40
2023-02-06T13:13:45.643Z,2.50
2023-02-06T13:16:13.793Z,2.50
2023-02-06T13:19:03.391Z,2.50
2023-02-06T13:21:35.132Z,2.70
2023-02-06T13:24:21.809Z,2.80
2023-02-06T13:27:05.052Z,2.90
2023-02-06T13:29:37.507Z,2.90
2023-02-06T13:32:48.702Z,2.90
2023-02-06T13:35:25.842Z,2.90
2023-02-06T13:38:13.205Z,2.90
2023-02-06T13:40:41.317Z,2.90
2023-02-06T13:43:18.727Z,3.00
2023-02-06T13:45:54.421Z,3.00
2023-02-06T13:48:47.517Z,2.90
2023-02-06T13:51:48.443Z,3.00
2023-02-06T13:54:37.464Z,3.00
2023-02-06T13:57:26.347Z,3.10
2023-02-06T14:00:00.640Z,3.10
2023-02-06T14:02:36.528Z,3.20
2023-02-06T14:05:07.614Z,3.10
2023-02-06T14:08:00.797Z,3.10
2023-02-06T14:10:44.992Z,3.20
2023-02-06T14:13:24.655Z,3.30
2023-02-06T14:16:04.555Z,3.30
2023-02-06T14:18:44.479Z,3.30
2023-02-06T14:21:26.930Z,3.30
2023-02-06T14:24:27.632Z,3.40
2023-02-06T14:27:06.051Z,3.30
2023-02-06T14:29:44.797Z,3.30
2023-02-06T14:32:30.338Z,3.20
2023-02-06T14:35:18.457Z,3.20
2023-02-06T14:38:03.106Z,3.20
2023-02-06T14:40:36.562Z,3.10
2023-02-06T14:43:08.990Z,3.10
2023-02-06T14:45:42.404Z,3.00
2023-02-06T14:48:20.384Z,2.90
2023-02-06T14:50:54.841Z,2.90
2023-02-06T14:53:28.167Z,2.80
2023-02-06T14:56:08.653Z,2.90
2023-02-06T14:58:37.392Z,2.90
2023-02-06T15:01:21.521Z,2.80
2023-02-06T15:03:52.492Z,2.80
2023-02-06T15:06:33.398Z,2.70
2023-02-06T15:09:02.437Z,2.70
2023-02-06T15:11:33.353Z,2.70
2023-02-06T15:14:05.842Z,2.80
2023-02-06T15:16:47.135Z,2.80
2023-02-06T15:19:20.410Z,2.70
2023-02-06T15:21:51.053Z,2.60
2023-02-06T15:24:44.322Z,2.60
2023-02-06T15:27:21.676Z,2.60
2023-02-06T15:29:50.818Z,2.60
2023-02-06T15:32:26.949Z,2.60
2023-02-06T15:34:55.324Z,2.50
2023-02-06T15:37:28.928Z,2.50
2023-02-06T15:40:02.611Z,2.50
2023-02-06T15:42:31.440Z,2.40
2023-02-06T15:44:59.872Z,2.40
2023-02-06T15:47:28.105Z,2.40
2023-02-06T15:50:00.636Z,2.30
2023-02-06T15:52:42.684Z,2.30
2023-02-06T15:55:27.258Z,2.20
2023-02-06T15:57:56.656Z,2.20
2023-02-06T16:00:27.449Z,2.20
2023-02-06T16:03:02.667Z,2.20
2023-02-06T16:05:33.015Z,2.20
2023-02-06T16:08:04.187Z,2.30
2023-02-06T16:10:36.836Z,2.30
2023-02-06T16:13:10.728Z,2.30
2023-02-06T16:15:40.721Z,2.30
2023-02-06T16:18:26.210Z,2.20
2023-02-06T16:21:12.803Z,2.20
2023-02-06T16:23:49.008Z,2.10
2023-02-06T16:26:19.396Z,2.10
2023-02-06T16:28:54.742Z,2.10
2023-02-06T16:31:23.141Z,2.20
2023-02-06T16:33:53.543Z,2.10
2023-02-06T16:36:23.475Z,2.10
2023-02-06T16:39:03.384Z,2.10
2023-02-06T16:41:34.188Z,2.10
2023-02-06T16:44:04.216Z,2.10
2023-02-06T16:46:32.797Z,2.10
2023-02-06T16:49:01.484Z,2.10
2023-02-06T16:51:31.956Z,2.00
2023-02-06T16:54:01.565Z,2.00
2023-02-06T16:56:29.692Z,1.90
2023-02-06T16:58:57.904Z,1.80
2023-02-06T17:01:29.462Z,1.80
2023-02-06T17:03:57.742Z,1.70
2023-02-06T17:06:27.620Z,1.80
2023-02-06T17:08:58.774Z,1.80
2023-02-06T17:11:28.514Z,1.70
2023-02-06T17:13:56.871Z,1.70
2023-02-06T17:16:26.730Z,1.70
2023-02-06T17:18:55.195Z,1.70
2023-02-06T17:21:25.055Z,1.80
2023-02-06T17:23:53.308Z,1.70
2023-02-06T17:26:24.119Z,1.70
2023-02-06T17:28:53.831Z,1.70
2023-02-06T17:31:22.119Z,1.70
2023-02-06T17:33:50.584Z,1.70
2023-02-06T17:36:22.405Z,1.70
2023-02-06T17:38:50.574Z,1.60
2023-02-06T17:41:18.697Z,1.60
2023-02-06T17:43:46.788Z,1.60
2023-02-06T17:46:16.507Z,1.60
2023-02-06T17:48:44.627Z,1.60
2023-02-06T17:51:12.863Z,1.60
2023-02-06T17:53:41.318Z,1.60
2023-02-06T17:56:12.791Z,1.60
2023-02-06T17:58:41.639Z,1.60
2023-02-06T18:01:12.861Z,1.50
2023-02-06T18:03:43.280Z,1.50
2023-02-06T18:06:11.893Z,1.40
2023-02-06T18:08:41.533Z,1.40
2023-02-06T18:11:11.485Z,1.40
2023-02-06T18:13:40.289Z,1.30
2023-02-06T18:16:13.689Z,1.40
2023-02-06T18:18:43.475Z,1.30
2023-02-06T18:21:12.251Z,1.30
2023-02-06T18:23:42.274Z,1.30
2023-02-06T18:26:11.435Z,1.20
2023-02-06T18:28:40.762Z,1.00
2023-02-06T18:31:23.217Z,0.80
2023-02-06T18:33:52.960Z,0.70
2023-02-06T18:36:21.456Z,0.70
2023-02-06T18:38:49.644Z,0.80
2023-02-06T18:41:35.489Z,0.80
2023-02-06T18:44:04.671Z,0.90
2023-02-06T18:46:32.901Z,1.00
2023-02-06T18:49:02.684Z,1.00
2023-02-06T18:51:31.216Z,1.00
2023-02-06T18:53:59.578Z,1.00
2023-02-06T18:56:27.848Z,1.00
2023-02-06T18:58:56.064Z,1.00
2023-02-06T19:01:25.448Z,1.00
2023-02-06T19:03:54.670Z,1.00
2023-02-06T19:06:28.859Z,1.00
2023-02-06T19:08:57.269Z,1.00
2023-02-06T19:11:26.218Z,1.00
2023-02-06T19:13:54.682Z,1.00
2023-02-06T19:16:23.172Z,1.00
2023-02-06T19:18:51.375Z,1.00
2023-02-06T19:21:21.754Z,1.00
2023-02-06T19:23:56.180Z,0.90
2023-02-06T19:26:25.038Z,0.80
2023-02-06T19:28:53.484Z,0.70
2023-02-06T19:31:24.056Z,0.60
2023-02-06T19:33:54.011Z,0.60
2023-02-06T19:36:23.240Z,0.50
2023-02-06T19:38:56.454Z,0.50
2023-02-06T19:41:26.807Z,0.40
2023-02-06T19:43:56.576Z,0.30
2023-02-06T19:46:26.696Z,0.40
2023-02-06T19:48:55.814Z,0.40
2023-02-06T19:51:26.562Z,0.40
2023-02-06T19:53:57.238Z,0.40
2023-02-06T19:56:27.630Z,0.40
2023-02-06T19:58:56.567Z,0.40
2023-02-06T20:01:25.576Z,0.50
2023-02-06T20:03:53.924Z,0.50
2023-02-06T20:06:22.389Z,0.50
2023-02-06T20:08:51.295Z,0.50
2023-02-06T20:11:22.897Z,0.50
2023-02-06T20:13:53.786Z,0.50
2023-02-06T20:16:23.943Z,0.50
2023-02-06T20:18:52.376Z,0.50
2023-02-06T20:21:23.220Z,0.50
2023-02-06T20:23:51.462Z,0.50
2023-02-06T20:26:22.253Z,0.50
2023-02-06T20:28:50.705Z,0.50
2023-02-06T20:31:18.989Z,0.40
2023-02-06T20:33:47.962Z,0.40
2023-02-06T20:36:18.748Z,0.40
2023-02-06T20:38:49.749Z,0.40
2023-02-06T20:41:18.694Z,0.40
2023-02-06T20:43:48.660Z,0.30
2023-02-06T20:46:17.609Z,0.30
2023-02-06T20:48:47.046Z,0.20
2023-02-06T20:51:15.578Z,0.20
2023-02-06T20:53:43.652Z,0.30
2023-02-06T20:56:14.521Z,0.30
2023-02-06T20:58:42.838Z,0.30
2023-02-06T21:01:18.277Z,0.30
2023-02-06T21:03:47.707Z,0.30
2023-02-06T21:06:16.610Z,0.20
2023-02-06T21:08:47.256Z,0.20
2023-02-06T21:11:15.418Z,0.10
2023-02-06T21:13:44.034Z,0.10
2023-02-06T21:16:13.652Z,0.10
2023-02-06T21:18:43.241Z,0.10
2023-02-06T21:21:14.165Z,0.00
2023-02-06T21:23:43.731Z,0.00
2023-02-06T21:26:13.721Z,0.00
2023-02-06T21:28:42.423Z,0.00
2023-02-06T21:31:14.177Z,0.00
2023-02-06T21:33:44.381Z,0.00
2023-02-06T21:36:12.499Z,-0.10
2023-02-06T21:38:41.431Z,-0.30
2023-02-06T21:41:11.946Z,-0.30
2023-02-06T21:43:40.192Z,-0.30
2023-02-06T21:46:08.886Z,-0.30
2023-02-06T21:48:37.542Z,-0.30
2023-02-06T21:51:11.354Z,-0.30
2023-02-06T21:53:39.916Z,-0.30
2023-02-06T21:56:09.468Z,-0.30
2023-02-06T21:58:37.693Z,-0.30
2023-02-06T22:01:08.929Z,-0.20
2023-02-06T22:03:37.643Z,-0.30
2023-02-06T22:06:08.707Z,-0.30
2023-02-06T22:08:39.342Z,-0.40
2023-02-06T22:11:13.479Z,-0.50
2023-02-06T22:13:42.692Z,-0.70
2023-02-06T22:16:13.183Z,-0.70
2023-02-06T22:18:41.647Z,-0.70
2023-02-06T22:21:12.967Z,-0.70
2023-02-06T22:23:43.661Z,-0.70
2023-02-06T22:26:14.218Z,-0.60
2023-02-06T22:28:42.767Z,-0.60
2023-02-06T22:31:12.780Z,-0.50
2023-02-06T22:33:41.172Z,-0.40
2023-02-06T22:36:12.232Z,-0.40
2023-02-06T22:38:42.532Z,-0.30
2023-02-06T22:41:14.668Z,-0.30
2023-02-06T22:43:44.091Z,-0.40
2023-02-06T22:46:19.523Z,-0.40
2023-02-06T22:48:47.907Z,-0.40
2023-02-06T22:51:16.320Z,-0.30
2023-02-06T22:53:46.195Z,-0.30
2023-02-06T22:56:31.664Z,-0.30
2023-02-06T22:59:02.138Z,-0.30
2023-02-06T23:01:33.055Z,-0.30
2023-02-06T23:04:02.310Z,-0.30
2023-02-06T23:06:31.962Z,-0.30
2023-02-06T23:09:03.144Z,-0.30
2023-02-06T23:11:32.057Z,-0.20
2023-02-06T23:14:02.698Z,-0.20
2023-02-06T23:16:32.265Z,-0.30
2023-02-06T23:19:04.427Z,-0.30
2023-02-06T23:21:33.712Z,-0.30
2023-02-06T23:24:03.294Z,-0.30
2023-02-06T23:26:31.761Z,-0.30
2023-02-06T23:29:00.937Z,-0.30
2023-02-06T23:31:30.372Z,-0.30
2023-02-06T23:33:58.545Z,-0.30
2023-02-06T23:36:29.542Z,-0.30
2023-02-06T23:38:57.858Z,-0.30
2023-02-06T23:41:29.295Z,-0.40
2023-02-06T23:43:59.808Z,-0.50
2023-02-06T23:46:29.727Z,-0.60
2023-02-06T23:48:58.076Z,-0.70
2023-02-06T23:51:26.877Z,-0.70
2023-02-06T23:53:55.016Z,-0.80
2023-02-06T23:56:26.825Z,-0.90
2023-02-06T23:58:57.084Z,-0.90
